createdAt,value
2017-10-30T00:01:14.849Z,8.98
2017-10-30T00:01:55.223Z,8.91
2017-10-30T00:02:35.709Z,8.96
2017-10-30T00:03:16.207Z,8.87
2017-10-30T00:03:56.689Z,8.98
2017-10-30T00:04:37.165Z,8.98
2017-10-30T00:05:17.650Z,8.84
2017-10-30T00:05:58.144Z,8.84
2017-10-30T00:06:38.604Z,8.91
2017-10-30T00:07:19.090Z,8.98
2017-10-30T00:07:59.565Z,8.89
2017-10-30T00:08:40.039Z,8.84
2017-10-30T00:09:20.514Z,8.91
2017-10-30T00:10:01.006Z,8.99
2017-10-30T00:10:41.505Z,8.89
2017-10-30T00:11:21.987Z,8.91
2017-10-30T00:12:02.491Z,8.87
2017-10-30T00:12:42.974Z,8.84
2017-10-30T00:13:23.482Z,8.91
2017-10-30T00:14:03.930Z,8.84
2017-10-30T00:14:44.393Z,8.95
2017-10-30T00:15:24.843Z,8.84
2017-10-30T00:16:05.332Z,8.87
2017-10-30T00:16:45.782Z,8.94
2017-10-30T00:17:26.227Z,8.84
2017-10-30T00:18:06.689Z,8.84
2017-10-30T00:18:47.160Z,8.86
2017-10-30T00:19:27.612Z,8.84
2017-10-30T00:20:08.057Z,8.84
2017-10-30T00:20:48.526Z,8.98
2017-10-30T00:21:28.991Z,8.87
2017-10-30T00:22:09.448Z,8.86
2017-10-30T00:22:49.903Z,8.86
2017-10-30T00:23:30.357Z,8.83
2017-10-30T00:24:10.829Z,8.7
2017-10-30T00:24:51.288Z,8.83
2017-10-30T00:25:31.725Z,8.76
2017-10-30T00:27:24.877Z,8.76
2017-10-30T00:28:05.213Z,8.76
2017-10-30T00:28:45.679Z,8.84
2017-10-30T00:29:26.138Z,8.74
2017-10-30T00:30:06.594Z,8.81
2017-10-30T00:30:47.074Z,8.79
2017-10-30T00:31:27.549Z,8.74
2017-10-30T00:32:07.988Z,8.8
2017-10-30T00:32:48.389Z,8.73
2017-10-30T00:33:28.890Z,8.77
2017-10-30T00:34:09.313Z,8.7
2017-10-30T00:34:49.800Z,8.7
2017-10-30T00:35:30.259Z,8.73
2017-10-30T00:37:22.794Z,8.73
2017-10-30T00:38:03.260Z,8.74
2017-10-30T00:38:43.748Z,8.84
2017-10-30T00:39:24.220Z,8.81
2017-10-30T00:40:04.694Z,8.86
2017-10-30T00:40:45.149Z,8.83
2017-10-30T00:41:25.615Z,8.79
2017-10-30T00:42:06.096Z,8.76
2017-10-30T00:42:46.601Z,8.77
2017-10-30T00:43:27.086Z,8.74
2017-10-30T00:44:07.559Z,8.74
2017-10-30T00:44:48.022Z,8.7
2017-10-30T00:45:28.487Z,8.86
2017-10-30T00:46:08.923Z,8.7
2017-10-30T00:46:49.365Z,8.86
2017-10-30T00:47:29.786Z,8.86
2017-10-30T00:49:27.474Z,8.77
2017-10-30T00:50:07.888Z,8.77
2017-10-30T00:50:48.325Z,8.71
2017-10-30T00:51:28.806Z,8.68
2017-10-30T00:52:09.272Z,8.74
2017-10-30T00:52:49.700Z,8.74
2017-10-30T00:53:30.156Z,8.73
2017-10-30T00:54:10.636Z,8.68
2017-10-30T00:54:51.061Z,8.62
2017-10-30T00:55:31.549Z,8.73
2017-10-30T00:56:12.009Z,8.66
2017-10-30T00:56:52.466Z,8.62
2017-10-30T00:58:50.020Z,8.61
2017-10-30T00:59:30.515Z,8.53
2017-10-30T01:00:10.989Z,8.55
2017-10-30T01:00:51.402Z,8.55
2017-10-30T01:01:31.882Z,8.5
2017-10-30T01:02:12.331Z,8.59
2017-10-30T01:04:10.068Z,8.58
2017-10-30T01:04:50.497Z,8.56
2017-10-30T01:05:30.958Z,8.47
2017-10-30T01:07:18.503Z,8.55
2017-10-30T01:07:58.912Z,8.52
2017-10-30T01:08:39.404Z,8.53
2017-10-30T01:09:19.876Z,8.52
2017-10-30T01:10:00.351Z,8.56
2017-10-30T01:10:40.835Z,8.5
2017-10-30T01:11:21.294Z,8.48
2017-10-30T01:12:01.781Z,8.55
2017-10-30T01:12:42.270Z,8.55
2017-10-30T01:13:22.731Z,8.56
2017-10-30T01:14:03.183Z,8.48
2017-10-30T01:14:43.639Z,8.5
2017-10-30T01:15:24.111Z,8.44
2017-10-30T01:16:04.563Z,8.56
2017-10-30T01:16:45.010Z,8.53
2017-10-30T01:17:25.444Z,8.48
2017-10-30T01:19:12.897Z,8.47
2017-10-30T01:19:53.412Z,8.44
2017-10-30T01:20:33.923Z,8.5
2017-10-30T01:21:14.396Z,8.48
2017-10-30T01:21:54.886Z,8.43
2017-10-30T01:22:35.309Z,8.38
2017-10-30T01:23:15.778Z,8.52
2017-10-30T01:24:53.113Z,8.43
2017-10-30T01:25:33.573Z,8.41
2017-10-30T01:26:14.062Z,8.41
2017-10-30T01:26:54.553Z,8.4
2017-10-30T01:27:35.039Z,8.41
2017-10-30T01:28:15.537Z,8.41
2017-10-30T01:28:56.060Z,8.43
2017-10-30T01:29:36.484Z,8.48
2017-10-30T01:30:16.921Z,8.43
2017-10-30T01:32:04.447Z,8.38
2017-10-30T01:32:44.852Z,8.29
2017-10-30T01:33:25.296Z,8.28
2017-10-30T01:34:05.727Z,8.26
2017-10-30T01:34:46.164Z,8.38
2017-10-30T01:35:26.613Z,8.28
2017-10-30T01:36:07.086Z,8.29
2017-10-30T01:36:47.560Z,8.23
2017-10-30T01:37:28.035Z,8.33
2017-10-30T01:38:08.481Z,8.38
2017-10-30T01:38:48.927Z,8.3
2017-10-30T01:39:29.369Z,8.3
2017-10-30T01:40:09.756Z,8.33
2017-10-30T01:40:50.221Z,8.33
2017-10-30T01:41:30.647Z,8.26
2017-10-30T01:42:11.099Z,8.15
2017-10-30T01:42:51.546Z,8.3
2017-10-30T01:43:31.971Z,8.34
2017-10-30T01:44:12.459Z,8.28
2017-10-30T01:44:52.861Z,8.3
2017-10-30T01:45:33.344Z,8.15
2017-10-30T01:46:13.796Z,8.16
2017-10-30T01:46:54.270Z,8.29
2017-10-30T01:47:34.688Z,8.2
2017-10-30T01:48:15.162Z,8.23
2017-10-30T01:48:55.640Z,8.15
2017-10-30T01:49:36.105Z,8.16
2017-10-30T01:50:16.545Z,8.2
2017-10-30T01:50:56.999Z,8.16
2017-10-30T01:51:37.437Z,8.11
2017-10-30T01:52:17.916Z,8.12
2017-10-30T01:52:58.350Z,8.2
2017-10-30T01:53:38.778Z,8.11
2017-10-30T01:54:19.219Z,8.2
2017-10-30T01:54:59.686Z,8.19
2017-10-30T01:55:40.085Z,8.12
2017-10-30T01:56:20.542Z,8.16
2017-10-30T01:57:00.977Z,8.19
2017-10-30T01:57:41.429Z,8.01
2017-10-30T01:58:21.895Z,8.1
2017-10-30T01:59:02.362Z,8.11
2017-10-30T01:59:42.791Z,8.1
2017-10-30T02:00:23.265Z,8.07
2017-10-30T02:01:03.727Z,8.07
2017-10-30T02:01:44.174Z,8.15
2017-10-30T02:02:24.618Z,8.23
2017-10-30T02:03:05.098Z,8.2
2017-10-30T02:03:45.542Z,8.15
2017-10-30T02:04:26.019Z,8.15
2017-10-30T02:05:06.482Z,8.22
2017-10-30T02:05:46.922Z,8.07
2017-10-30T02:06:27.390Z,8.16
2017-10-30T02:07:07.845Z,8.15
2017-10-30T02:07:48.335Z,8.11
2017-10-30T02:08:28.783Z,8.15
2017-10-30T02:09:09.231Z,8.1
2017-10-30T02:09:49.672Z,8.08
2017-10-30T02:10:30.183Z,8.01
2017-10-30T02:12:17.661Z,8.08
2017-10-30T02:12:58.117Z,8.02
2017-10-30T02:13:38.558Z,7.97
2017-10-30T02:14:19.020Z,7.98
2017-10-30T02:14:59.510Z,7.92
2017-10-30T02:15:40.012Z,8.02
2017-10-30T02:16:20.472Z,8.01
2017-10-30T02:17:00.949Z,8.07
2017-10-30T02:17:41.424Z,8
2017-10-30T02:18:21.894Z,8.07
2017-10-30T02:19:02.351Z,8.15
2017-10-30T02:20:55.012Z,8.1
2017-10-30T02:21:35.397Z,8.07
2017-10-30T02:22:15.888Z,8.02
2017-10-30T02:22:56.373Z,8.11
2017-10-30T02:23:36.855Z,8.08
2017-10-30T02:24:17.316Z,8.08
2017-10-30T02:24:57.757Z,8.02
2017-10-30T02:25:38.221Z,8.01
2017-10-30T02:26:18.681Z,7.95
2017-10-30T02:26:59.250Z,8.01
2017-10-30T02:27:39.599Z,8.04
2017-10-30T02:29:37.301Z,7.95
2017-10-30T02:30:17.682Z,8
2017-10-30T02:30:58.108Z,7.95
2017-10-30T02:31:38.561Z,7.97
2017-10-30T02:32:19.016Z,7.98
2017-10-30T02:32:59.429Z,8
2017-10-30T02:33:39.958Z,7.98
2017-10-30T02:34:20.375Z,7.98
2017-10-30T02:35:00.836Z,7.95
2017-10-30T02:35:41.274Z,8.1
2017-10-30T02:36:21.715Z,8.02
2017-10-30T02:37:02.206Z,8.02
2017-10-30T02:37:42.646Z,7.98
2017-10-30T02:38:23.107Z,8.01
2017-10-30T02:39:03.567Z,7.98
2017-10-30T02:39:43.987Z,7.93
2017-10-30T02:40:24.429Z,7.98
2017-10-30T02:41:04.849Z,7.98
2017-10-30T02:43:02.570Z,8.1
2017-10-30T02:43:42.916Z,7.97
2017-10-30T02:44:23.344Z,7.92
2017-10-30T02:45:03.809Z,8.01
2017-10-30T02:45:44.275Z,7.95
2017-10-30T02:46:24.769Z,7.98
2017-10-30T02:47:05.192Z,7.93
2017-10-30T02:47:45.643Z,7.93
2017-10-30T02:48:26.104Z,7.9
2017-10-30T02:49:06.591Z,7.98
2017-10-30T02:49:47.029Z,7.95
2017-10-30T02:50:27.503Z,7.93
2017-10-30T02:51:07.952Z,7.89
2017-10-30T02:51:48.359Z,7.87
2017-10-30T02:52:28.793Z,7.95
2017-10-30T02:53:09.235Z,7.95
2017-10-30T02:53:49.683Z,7.97
2017-10-30T02:54:30.122Z,8
2017-10-30T02:56:42.811Z,7.97
2017-10-30T02:57:23.341Z,7.89
2017-10-30T02:58:03.816Z,7.95
2017-10-30T02:58:44.303Z,8
2017-10-30T02:59:24.779Z,7.87
2017-10-30T03:00:05.296Z,7.86
2017-10-30T03:00:45.757Z,7.95
2017-10-30T03:01:26.225Z,8
2017-10-30T03:02:06.717Z,7.92
2017-10-30T03:02:47.185Z,7.87
2017-10-30T03:03:27.646Z,7.82
2017-10-30T03:04:08.108Z,7.95
2017-10-30T03:04:48.566Z,7.85
2017-10-30T03:05:28.990Z,7.87
2017-10-30T03:06:09.464Z,7.9
2017-10-30T03:06:49.932Z,7.92
2017-10-30T03:07:30.377Z,7.86
2017-10-30T03:09:28.012Z,7.89
2017-10-30T03:10:08.478Z,7.89
2017-10-30T03:10:48.960Z,7.87
2017-10-30T03:11:29.460Z,7.92
2017-10-30T03:12:09.932Z,7.89
2017-10-30T03:12:50.393Z,7.87
2017-10-30T03:13:30.876Z,7.83
2017-10-30T03:14:11.343Z,7.86
2017-10-30T03:14:51.846Z,7.82
2017-10-30T03:15:32.343Z,7.9
2017-10-30T03:16:12.792Z,7.86
2017-10-30T03:16:53.280Z,7.87
2017-10-30T03:17:33.783Z,7.9
2017-10-30T03:18:14.287Z,7.8
2017-10-30T03:20:27.011Z,7.89
2017-10-30T03:21:07.461Z,7.85
2017-10-30T03:21:47.900Z,7.87
2017-10-30T03:22:28.365Z,7.97
2017-10-30T03:24:25.959Z,7.87
2017-10-30T03:25:06.416Z,7.85
2017-10-30T03:25:46.913Z,7.79
2017-10-30T03:26:27.406Z,7.72
2017-10-30T03:27:07.883Z,7.83
2017-10-30T03:27:48.363Z,7.71
2017-10-30T03:28:28.815Z,7.68
2017-10-30T03:30:21.431Z,7.71
2017-10-30T03:31:01.830Z,7.63
2017-10-30T03:31:42.334Z,7.68
2017-10-30T03:32:22.726Z,7.74
2017-10-30T03:33:03.196Z,7.71
2017-10-30T03:35:16.063Z,7.72
2017-10-30T03:35:56.347Z,7.68
2017-10-30T03:36:36.869Z,7.72
2017-10-30T03:37:17.288Z,7.72
2017-10-30T03:37:57.730Z,7.68
2017-10-30T03:38:38.185Z,7.63
2017-10-30T03:39:18.635Z,7.6
2017-10-30T03:39:59.089Z,7.67
2017-10-30T03:40:39.522Z,7.58
2017-10-30T03:41:19.988Z,7.77
2017-10-30T03:42:00.429Z,7.69
2017-10-30T03:42:40.900Z,7.61
2017-10-30T03:43:21.335Z,7.67
2017-10-30T03:44:01.784Z,7.61
2017-10-30T03:44:42.252Z,7.69
2017-10-30T03:45:22.663Z,7.68
2017-10-30T03:47:35.357Z,7.64
2017-10-30T03:48:15.809Z,7.74
2017-10-30T03:48:56.285Z,7.63
2017-10-30T03:49:36.743Z,7.77
2017-10-30T03:50:17.186Z,7.69
2017-10-30T03:50:57.673Z,7.63
2017-10-30T03:51:38.139Z,7.61
2017-10-30T03:52:18.587Z,7.61
2017-10-30T03:52:59.022Z,7.71
2017-10-30T03:53:39.480Z,7.58
2017-10-30T03:55:16.846Z,7.61
2017-10-30T03:55:57.291Z,7.61
2017-10-30T03:56:37.798Z,7.69
2017-10-30T03:57:18.276Z,7.6
2017-10-30T03:57:58.740Z,7.64
2017-10-30T03:58:39.197Z,7.72
2017-10-30T03:59:19.706Z,7.64
2017-10-30T04:00:00.137Z,7.68
2017-10-30T04:00:40.599Z,7.64
2017-10-30T04:01:21.053Z,7.63
2017-10-30T04:03:08.530Z,7.58
2017-10-30T04:03:49.026Z,7.64
2017-10-30T04:04:29.473Z,7.61
2017-10-30T04:05:09.939Z,7.61
2017-10-30T04:05:50.402Z,7.69
2017-10-30T04:06:30.870Z,7.57
2017-10-30T04:07:11.361Z,7.58
2017-10-30T04:07:51.867Z,7.6
2017-10-30T04:08:32.337Z,7.55
2017-10-30T04:09:12.809Z,7.61
2017-10-30T04:09:53.297Z,7.71
2017-10-30T04:10:33.750Z,7.68
2017-10-30T04:11:14.183Z,7.6
2017-10-30T04:11:54.653Z,7.61
2017-10-30T04:12:35.100Z,7.57
2017-10-30T04:13:15.554Z,7.53
2017-10-30T04:13:56.015Z,7.67
2017-10-30T04:14:36.502Z,7.63
2017-10-30T04:15:17.008Z,7.58
2017-10-30T04:15:57.434Z,7.63
2017-10-30T04:16:37.901Z,7.67
2017-10-30T04:18:25.405Z,7.63
2017-10-30T04:19:05.849Z,7.64
2017-10-30T04:19:46.336Z,7.55
2017-10-30T04:20:26.760Z,7.61
2017-10-30T04:21:07.252Z,7.58
2017-10-30T04:21:47.704Z,7.68
2017-10-30T04:22:28.160Z,7.68
2017-10-30T04:23:08.629Z,7.57
2017-10-30T04:23:49.123Z,7.58
2017-10-30T04:24:29.520Z,7.53
2017-10-30T04:25:09.983Z,7.6
2017-10-30T04:25:50.444Z,7.6
2017-10-30T04:26:30.938Z,7.63
2017-10-30T04:27:11.376Z,7.67
2017-10-30T04:27:51.839Z,7.67
2017-10-30T04:28:32.274Z,7.61
2017-10-30T04:29:12.731Z,7.61
2017-10-30T04:29:53.185Z,7.64
2017-10-30T04:30:33.676Z,7.6
2017-10-30T04:31:14.157Z,7.55
2017-10-30T04:31:54.641Z,7.64
2017-10-30T04:32:35.090Z,7.61
2017-10-30T04:33:15.533Z,7.55
2017-10-30T04:33:55.982Z,7.57
2017-10-30T04:34:36.434Z,7.57
2017-10-30T04:35:16.878Z,7.58
2017-10-30T04:35:57.327Z,7.5
2017-10-30T04:36:37.810Z,7.42
2017-10-30T04:37:18.220Z,7.49
2017-10-30T04:37:58.688Z,7.49
2017-10-30T04:38:39.172Z,7.5
2017-10-30T04:39:19.606Z,7.52
2017-10-30T04:40:00.043Z,7.57
2017-10-30T04:40:40.562Z,7.58
2017-10-30T04:41:20.984Z,7.55
2017-10-30T04:42:01.423Z,7.52
2017-10-30T04:44:14.088Z,7.52
2017-10-30T04:44:54.546Z,7.63
2017-10-30T04:45:34.962Z,7.57
2017-10-30T04:46:15.406Z,7.55
2017-10-30T04:46:55.882Z,7.61
2017-10-30T04:47:36.339Z,7.58
2017-10-30T04:48:16.807Z,7.61
2017-10-30T04:48:57.279Z,7.63
2017-10-30T04:49:37.707Z,7.71
2017-10-30T04:50:18.166Z,7.69
2017-10-30T04:50:58.618Z,7.61
2017-10-30T04:51:39.091Z,7.57
2017-10-30T04:52:19.536Z,7.61
2017-10-30T04:54:32.222Z,7.61
2017-10-30T04:55:12.710Z,7.61
2017-10-30T04:55:53.221Z,7.71
2017-10-30T04:56:33.712Z,7.68
2017-10-30T04:57:14.156Z,7.63
2017-10-30T04:57:54.599Z,7.71
2017-10-30T04:58:35.097Z,7.68
2017-10-30T04:59:15.557Z,7.64
2017-10-30T05:01:03.479Z,7.75
2017-10-30T05:01:43.734Z,7.64
2017-10-30T05:02:24.192Z,7.72
2017-10-30T05:03:04.663Z,7.67
2017-10-30T05:03:45.192Z,7.82
2017-10-30T05:04:25.664Z,7.63
2017-10-30T05:05:06.081Z,7.75
2017-10-30T05:05:46.491Z,7.67
2017-10-30T05:06:26.926Z,7.6
2017-10-30T05:07:07.366Z,7.74
2017-10-30T05:07:47.843Z,7.71
2017-10-30T05:08:28.281Z,7.64
2017-10-30T05:09:08.739Z,7.57
2017-10-30T05:09:49.182Z,7.61
2017-10-30T05:10:29.597Z,7.64
2017-10-30T05:11:10.046Z,7.72
2017-10-30T05:11:51.083Z,7.67
2017-10-30T05:12:31.545Z,7.55
2017-10-30T05:13:12.907Z,7.61
2017-10-30T05:14:50.251Z,7.67
2017-10-30T05:15:30.749Z,7.61
2017-10-30T05:16:11.208Z,7.68
2017-10-30T05:16:51.713Z,7.67
2017-10-30T05:17:32.235Z,7.69
2017-10-30T05:18:12.653Z,7.61
2017-10-30T05:18:53.148Z,7.63
2017-10-30T05:19:33.618Z,7.57
2017-10-30T05:20:14.121Z,7.58
2017-10-30T05:20:54.583Z,7.69
2017-10-30T05:21:35.073Z,7.64
2017-10-30T05:22:15.549Z,7.61
2017-10-30T05:22:56.050Z,7.63
2017-10-30T05:23:36.553Z,7.55
2017-10-30T05:24:17.063Z,7.55
2017-10-30T05:24:57.530Z,7.52
2017-10-30T05:25:38.018Z,7.58
2017-10-30T05:26:18.495Z,7.57
2017-10-30T05:26:58.958Z,7.49
2017-10-30T05:27:39.439Z,7.48
2017-10-30T05:28:19.935Z,7.49
2017-10-30T05:29:00.430Z,7.46
2017-10-30T05:29:40.888Z,7.52
2017-10-30T05:30:21.340Z,7.46
2017-10-30T05:31:01.829Z,7.43
2017-10-30T05:31:42.332Z,7.45
2017-10-30T05:32:22.784Z,7.49
2017-10-30T05:33:03.276Z,7.46
2017-10-30T05:33:43.732Z,7.39
2017-10-30T05:34:24.196Z,7.48
2017-10-30T05:35:04.644Z,7.45
2017-10-30T05:35:45.091Z,7.42
2017-10-30T05:37:22.455Z,7.49
2017-10-30T05:38:02.901Z,7.49
2017-10-30T05:38:43.356Z,7.52
2017-10-30T05:39:23.837Z,7.5
2017-10-30T05:40:04.315Z,7.53
2017-10-30T05:40:44.809Z,7.48
2017-10-30T05:41:25.288Z,7.4
2017-10-30T05:43:02.882Z,7.45
2017-10-30T05:43:43.080Z,7.43
2017-10-30T05:44:23.518Z,7.42
2017-10-30T05:45:03.984Z,7.43
2017-10-30T05:45:44.437Z,7.46
2017-10-30T05:46:24.897Z,7.5
2017-10-30T05:47:05.405Z,7.49
2017-10-30T05:47:45.807Z,7.53
2017-10-30T05:48:26.234Z,7.42
2017-10-30T05:49:06.656Z,7.43
2017-10-30T05:49:47.110Z,7.46
2017-10-30T05:50:27.552Z,7.43
2017-10-30T05:51:08.016Z,7.43
2017-10-30T05:51:48.457Z,7.39
2017-10-30T05:52:28.927Z,7.37
2017-10-30T05:53:09.346Z,7.46
2017-10-30T05:53:49.799Z,7.42
2017-10-30T05:54:30.231Z,7.43
2017-10-30T05:55:10.724Z,7.43
2017-10-30T05:55:51.149Z,7.39
2017-10-30T05:56:31.602Z,7.45
2017-10-30T05:57:12.055Z,7.4
2017-10-30T05:57:52.473Z,7.32
2017-10-30T06:00:05.142Z,7.39
2017-10-30T06:00:45.593Z,7.39
2017-10-30T06:01:26.026Z,7.28
2017-10-30T06:02:07.432Z,7.32
2017-10-30T06:02:47.843Z,7.34
2017-10-30T06:03:28.322Z,7.37
2017-10-30T06:04:08.764Z,7.28
2017-10-30T06:04:49.242Z,7.3
2017-10-30T06:05:29.707Z,7.35
2017-10-30T06:06:10.177Z,7.31
2017-10-30T06:06:50.736Z,7.37
2017-10-30T06:07:31.113Z,7.32
2017-10-30T06:08:11.617Z,7.32
2017-10-30T06:08:52.035Z,7.32
2017-10-30T06:09:32.473Z,7.24
2017-10-30T06:10:12.925Z,7.32
2017-10-30T06:10:53.377Z,7.35
2017-10-30T06:11:33.848Z,7.32
2017-10-30T06:12:14.287Z,7.35
2017-10-30T06:12:54.741Z,7.3
2017-10-30T06:13:35.204Z,7.25
2017-10-30T06:14:15.652Z,7.31
2017-10-30T06:14:56.088Z,7.34
2017-10-30T06:15:36.514Z,7.16
2017-10-30T06:16:17.008Z,7.35
2017-10-30T06:16:57.532Z,7.31
2017-10-30T06:17:38.034Z,7.28
2017-10-30T06:18:18.472Z,7.39
2017-10-30T06:18:58.919Z,7.32
2017-10-30T06:19:39.370Z,7.35
2017-10-30T06:20:19.827Z,7.39
2017-10-30T06:21:00.299Z,7.45
2017-10-30T06:21:40.769Z,7.48
2017-10-30T06:22:21.274Z,7.58
2017-10-30T06:23:01.720Z,7.5
2017-10-30T06:23:42.183Z,7.49
2017-10-30T06:24:22.638Z,7.55
2017-10-30T06:25:03.062Z,7.57
2017-10-30T06:25:43.563Z,7.57
2017-10-30T06:26:23.946Z,7.63
2017-10-30T06:27:04.417Z,7.68
2017-10-30T06:27:44.919Z,7.63
2017-10-30T06:28:25.380Z,7.79
2017-10-30T06:29:05.832Z,7.71
2017-10-30T06:29:46.273Z,7.63
2017-10-30T06:30:26.717Z,7.72
2017-10-30T06:31:07.182Z,7.77
2017-10-30T06:32:54.696Z,7.93
2017-10-30T06:33:35.111Z,7.92
2017-10-30T06:34:15.562Z,7.85
2017-10-30T06:34:56.007Z,8
2017-10-30T06:36:43.486Z,7.9
2017-10-30T06:37:23.958Z,7.9
2017-10-30T06:38:04.449Z,7.93
2017-10-30T06:38:44.941Z,7.95
2017-10-30T06:39:25.438Z,8.05
2017-10-30T06:40:05.917Z,7.98
2017-10-30T06:40:46.397Z,8.04
2017-10-30T06:41:26.929Z,7.97
2017-10-30T06:42:07.411Z,7.92
2017-10-30T06:42:47.907Z,7.95
2017-10-30T06:43:28.430Z,8.04
2017-10-30T06:44:08.958Z,7.86
2017-10-30T06:44:49.438Z,8.01
2017-10-30T06:45:29.953Z,7.98
2017-10-30T06:46:10.452Z,8.07
2017-10-30T06:46:50.935Z,7.95
2017-10-30T06:47:31.425Z,7.93
2017-10-30T06:48:11.912Z,8.1
2017-10-30T06:48:52.396Z,7.98
2017-10-30T06:49:32.953Z,8.02
2017-10-30T06:50:13.412Z,8.04
2017-10-30T06:50:53.963Z,8.12
2017-10-30T06:51:34.405Z,8.07
2017-10-30T06:52:14.908Z,8.11
2017-10-30T06:52:55.411Z,8.11
2017-10-30T06:53:35.946Z,7.45
2017-10-30T06:54:16.456Z,7.82
2017-10-30T06:54:56.986Z,8.12
2017-10-30T06:55:37.494Z,8.19
2017-10-30T06:56:17.932Z,8.08
2017-10-30T06:56:58.377Z,8.16
2017-10-30T06:57:38.842Z,8.29
2017-10-30T06:58:19.280Z,8.2
2017-10-30T06:58:59.735Z,8.3
2017-10-30T06:59:40.184Z,8.36
2017-10-30T07:01:27.639Z,8.52
2017-10-30T07:02:08.121Z,8.58
2017-10-30T07:02:48.593Z,8.38
2017-10-30T07:03:29.078Z,8.43
2017-10-30T07:04:09.553Z,8.48
2017-10-30T07:04:50.064Z,8.44
2017-10-30T07:05:30.488Z,8.28
2017-10-30T07:06:10.993Z,8.38
2017-10-30T07:06:52.050Z,8.43
2017-10-30T07:07:32.509Z,8.52
2017-10-30T07:09:25.067Z,8.37
2017-10-30T07:10:05.510Z,8.41
2017-10-30T07:10:46.062Z,8.37
2017-10-30T07:11:26.538Z,8.25
2017-10-30T07:13:14.124Z,8.36
2017-10-30T07:13:54.442Z,8.41
2017-10-30T07:14:34.945Z,8.52
2017-10-30T07:15:15.369Z,8.44
2017-10-30T07:17:07.974Z,8.38
2017-10-30T07:17:48.385Z,8.41
2017-10-30T07:18:28.841Z,8.4
2017-10-30T07:20:26.486Z,8.26
2017-10-30T07:21:06.976Z,8.41
2017-10-30T07:21:47.462Z,8.52
2017-10-30T07:22:27.915Z,8.47
2017-10-30T07:23:08.446Z,8.61
2017-10-30T07:23:48.893Z,8.53
2017-10-30T07:25:36.398Z,8.65
2017-10-30T07:26:16.864Z,8.7
2017-10-30T07:26:57.485Z,8.7
2017-10-30T07:27:37.817Z,8.81
2017-10-30T07:28:18.263Z,8.96
2017-10-30T07:28:58.736Z,8.92
2017-10-30T07:29:39.160Z,8.8
2017-10-30T07:30:19.643Z,9.02
2017-10-30T07:31:00.168Z,9.01
2017-10-30T07:31:40.563Z,9.18
2017-10-30T07:32:21.011Z,9.28
2017-10-30T07:33:01.475Z,9.36
2017-10-30T07:35:14.182Z,9.43
2017-10-30T07:35:54.649Z,9.69
2017-10-30T07:36:35.129Z,9.61
2017-10-30T07:37:15.605Z,9.93
2017-10-30T07:37:56.135Z,9.78
2017-10-30T07:38:36.594Z,9.87
2017-10-30T07:39:17.108Z,9.89
2017-10-30T07:39:57.523Z,9.99
2017-10-30T07:40:37.997Z,10.07
2017-10-30T07:41:18.461Z,10.14
2017-10-30T07:43:11.021Z,10.12
2017-10-30T07:43:51.588Z,10.01
2017-10-30T07:44:32.070Z,9.94
2017-10-30T07:45:13.033Z,9.84
2017-10-30T07:45:53.495Z,9.97
2017-10-30T07:46:33.950Z,9.79
2017-10-30T07:47:14.413Z,9.83
2017-10-30T07:47:54.941Z,9.87
2017-10-30T07:48:35.371Z,9.79
2017-10-30T07:50:27.923Z,9.53
2017-10-30T07:51:08.392Z,9.58
2017-10-30T07:51:48.888Z,9.47
2017-10-30T07:54:01.676Z,9.4
2017-10-30T07:54:42.174Z,9.48
2017-10-30T07:55:22.633Z,9.64
2017-10-30T07:56:03.094Z,9.58
2017-10-30T07:56:43.569Z,9.6
2017-10-30T07:57:23.991Z,9.64
2017-10-30T07:58:04.456Z,9.57
2017-10-30T07:58:44.904Z,9.46
2017-10-30T07:59:25.441Z,9.54
2017-10-30T08:00:05.891Z,9.58
2017-10-30T08:00:46.320Z,9.43
2017-10-30T08:01:26.761Z,9.39
2017-10-30T08:02:07.197Z,9.56
2017-10-30T08:02:47.629Z,9.56
2017-10-30T08:04:25.047Z,9.57
2017-10-30T08:05:05.436Z,9.65
2017-10-30T08:05:45.921Z,9.6
2017-10-30T08:06:26.403Z,9.66
2017-10-30T08:07:06.870Z,9.66
2017-10-30T08:07:47.350Z,9.75
2017-10-30T08:08:27.812Z,9.68
2017-10-30T08:09:08.279Z,9.61
2017-10-30T08:09:48.738Z,9.69
2017-10-30T08:11:36.359Z,9.54
2017-10-30T08:12:16.750Z,9.56
2017-10-30T08:12:57.250Z,9.54
2017-10-30T08:13:37.712Z,9.65
2017-10-30T08:14:18.203Z,9.65
2017-10-30T08:14:58.629Z,9.68
2017-10-30T08:15:39.162Z,9.84
2017-10-30T08:16:19.607Z,9.81
2017-10-30T08:17:00.068Z,9.89
2017-10-30T08:17:40.470Z,9.9
2017-10-30T08:18:20.975Z,9.84
2017-10-30T08:19:01.443Z,9.94
2017-10-30T08:19:41.938Z,10.05
2017-10-30T08:20:22.469Z,10.08
2017-10-30T08:21:02.939Z,10.07
2017-10-30T08:21:43.379Z,10.08
2017-10-30T08:22:23.837Z,10.02
2017-10-30T08:23:04.267Z,10.02
2017-10-30T08:23:44.762Z,10.14
2017-10-30T08:24:25.241Z,10.12
2017-10-30T08:25:05.721Z,10.17
2017-10-30T08:25:46.152Z,10.36
2017-10-30T08:26:26.857Z,10.47
2017-10-30T08:27:07.278Z,10.55
2017-10-30T08:27:47.744Z,10.48
2017-10-30T08:28:29.062Z,10.41
2017-10-30T08:29:09.697Z,10.45
2017-10-30T08:29:50.171Z,10.51
2017-10-30T08:30:30.674Z,10.52
2017-10-30T08:31:11.090Z,10.52
2017-10-30T08:33:08.736Z,10.6
2017-10-30T08:33:49.205Z,10.68
2017-10-30T08:34:29.686Z,10.64
2017-10-30T08:35:10.147Z,10.71
2017-10-30T08:35:50.620Z,10.78
2017-10-30T08:36:31.060Z,10.81
2017-10-30T08:37:11.509Z,10.82
2017-10-30T08:37:51.941Z,10.82
2017-10-30T08:38:32.431Z,10.86
2017-10-30T08:39:12.900Z,10.73
2017-10-30T08:40:50.286Z,10.71
2017-10-30T08:41:30.696Z,10.79
2017-10-30T08:42:11.187Z,10.71
2017-10-30T08:42:51.682Z,10.82
2017-10-30T08:43:32.180Z,10.79
2017-10-30T08:44:12.660Z,10.96
2017-10-30T08:44:53.165Z,10.97
2017-10-30T08:45:33.648Z,10.91
2017-10-30T08:46:14.129Z,10.84
2017-10-30T08:46:54.616Z,11
2017-10-30T08:47:35.111Z,10.99
2017-10-30T08:48:15.652Z,10.97
2017-10-30T08:48:56.131Z,11.04
2017-10-30T08:49:36.622Z,11.18
2017-10-30T08:50:17.098Z,11.28
2017-10-30T08:50:57.589Z,11.21
2017-10-30T08:51:38.089Z,11.17
2017-10-30T08:52:18.590Z,10.96
2017-10-30T08:52:59.072Z,11.1
2017-10-30T08:53:39.544Z,11.04
2017-10-30T08:54:20.030Z,11.09
2017-10-30T08:55:00.533Z,11.03
2017-10-30T08:55:41.009Z,11.14
2017-10-30T08:56:21.516Z,11.18
2017-10-30T08:57:02.053Z,11.27
2017-10-30T08:57:42.562Z,11.35
2017-10-30T08:58:23.070Z,11.32
2017-10-30T08:59:03.596Z,11.39
2017-10-30T08:59:44.066Z,11.37
2017-10-30T09:00:24.548Z,11.24
2017-10-30T09:01:05.028Z,11.43
2017-10-30T09:01:45.524Z,11.46
2017-10-30T09:02:26.006Z,11.4
2017-10-30T09:03:06.464Z,11.57
2017-10-30T09:03:46.946Z,11.33
2017-10-30T09:04:27.404Z,11.32
2017-10-30T09:05:07.840Z,11.32
2017-10-30T09:05:48.283Z,11.42
2017-10-30T09:06:28.744Z,11.43
2017-10-30T09:07:09.210Z,11.39
2017-10-30T09:07:49.700Z,11.33
2017-10-30T09:08:30.184Z,11.4
2017-10-30T09:09:10.668Z,11.32
2017-10-30T09:09:51.137Z,11.33
2017-10-30T09:10:31.619Z,11.32
2017-10-30T09:11:12.105Z,11.18
2017-10-30T09:13:04.657Z,11.58
2017-10-30T09:13:45.143Z,11.72
2017-10-30T09:14:25.599Z,11.57
2017-10-30T09:15:06.099Z,11.54
2017-10-30T09:15:46.561Z,11.69
2017-10-30T09:16:27.049Z,11.79
2017-10-30T09:17:07.552Z,11.85
2017-10-30T09:17:48.015Z,11.76
2017-10-30T09:18:28.499Z,11.85
2017-10-30T09:19:08.996Z,11.91
2017-10-30T09:19:49.496Z,11.95
2017-10-30T09:20:29.999Z,11.8
2017-10-30T09:21:10.498Z,11.82
2017-10-30T09:21:50.982Z,11.91
2017-10-30T09:22:31.546Z,11.94
2017-10-30T09:23:12.043Z,12.1
2017-10-30T09:23:52.540Z,12.13
2017-10-30T09:24:33.036Z,12.19
2017-10-30T09:25:13.548Z,12.14
2017-10-30T09:25:54.028Z,12.12
2017-10-30T09:26:34.515Z,12.01
2017-10-30T09:27:15.013Z,12.14
2017-10-30T09:27:55.476Z,12.16
2017-10-30T09:28:36.004Z,12.12
2017-10-30T09:29:16.453Z,12.2
2017-10-30T09:29:56.976Z,12.19
2017-10-30T09:30:37.485Z,12.37
2017-10-30T09:31:17.992Z,12.38
2017-10-30T09:31:58.491Z,12.27
2017-10-30T09:32:38.982Z,12.52
2017-10-30T09:33:19.481Z,12.59
2017-10-30T09:33:59.957Z,12.62
2017-10-30T09:34:40.449Z,12.59
2017-10-30T09:35:20.927Z,12.47
2017-10-30T09:36:01.397Z,12.37
2017-10-30T09:36:41.892Z,12.37
2017-10-30T09:37:22.365Z,12.59
2017-10-30T09:38:02.842Z,12.56
2017-10-30T09:38:43.291Z,12.49
2017-10-30T09:39:23.712Z,12.72
2017-10-30T09:40:04.163Z,12.56
2017-10-30T09:40:44.618Z,12.6
2017-10-30T09:41:25.103Z,12.75
2017-10-30T09:42:05.614Z,12.74
2017-10-30T09:42:46.061Z,12.9
2017-10-30T09:43:26.505Z,12.77
2017-10-30T09:44:06.973Z,12.71
2017-10-30T09:44:47.470Z,12.83
2017-10-30T09:47:00.188Z,12.65
2017-10-30T09:47:40.689Z,12.9
2017-10-30T09:48:21.194Z,12.87
2017-10-30T09:49:01.684Z,12.74
2017-10-30T09:49:42.228Z,12.7
2017-10-30T09:50:22.720Z,12.82
2017-10-30T09:51:03.237Z,13.04
2017-10-30T09:51:43.666Z,12.97
2017-10-30T09:52:24.167Z,13.17
2017-10-30T09:53:04.675Z,13.25
2017-10-30T09:53:45.137Z,13.51
2017-10-30T09:54:25.633Z,13.52
2017-10-30T09:55:06.084Z,13.32
2017-10-30T09:55:46.637Z,13.46
2017-10-30T09:56:27.080Z,13.62
2017-10-30T09:57:07.560Z,13.57